sensor_id;sensor_type;location;lat;lon;timestamp;P1;durP1;ratioP1;P2;durP2;ratioP2
28009;SDS011;15334;49.494;8.410;2023-04-01T00:01:39;6.80;;;0.70;;
28009;SDS011;15334;49.494;8.410;2023-04-01T00:04:09;6.45;;;1.17;;
28009;SDS011;15334;49.494;8.410;2023-04-01T00:06:37;3.63;;;1.25;;
28009;SDS011;15334;49.494;8.410;2023-04-01T00:09:05;7.35;;;1.15;;
28009;SDS011;15334;49.494;8.410;2023-04-01T00:11:33;4.80;;;1.00;;
28009;SDS011;15334;49.494;8.410;2023-04-01T00:14:01;5.55;;;1.15;;
28009;SDS011;15334;49.494;8.410;2023-04-01T00:16:29;3.97;;;1.08;;
28009;SDS011;15334;49.494;8.410;2023-04-01T00:18:57;4.93;;;1.10;;
28009;SDS011;15334;49.494;8.410;2023-04-01T00:21:27;2.83;;;1.85;;
28009;SDS011;15334;49.494;8.410;2023-04-01T00:23:55;6.90;;;0.82;;
28009;SDS011;15334;49.494;8.410;2023-04-01T00:26:23;6.07;;;1.00;;
28009;SDS011;15334;49.494;8.410;2023-04-01T00:28:52;5.85;;;1.13;;
28009;SDS011;15334;49.494;8.410;2023-04-01T00:31:20;6.97;;;0.75;;
28009;SDS011;15334;49.494;8.410;2023-04-01T00:33:48;8.15;;;1.08;;
28009;SDS011;15334;49.494;8.410;2023-04-01T00:36:17;4.47;;;0.98;;
28009;SDS011;15334;49.494;8.410;2023-04-01T00:38:49;3.38;;;0.95;;
28009;SDS011;15334;49.494;8.410;2023-04-01T00:41:18;4.88;;;0.90;;
28009;SDS011;15334;49.494;8.410;2023-04-01T00:43:48;5.40;;;1.25;;
28009;SDS011;15334;49.494;8.410;2023-04-01T00:46:18;2.17;;;0.77;;
28009;SDS011;15334;49.494;8.410;2023-04-01T00:48:47;4.13;;;0.85;;
28009;SDS011;15334;49.494;8.410;2023-04-01T00:51:19;1.95;;;0.90;;
28009;SDS011;15334;49.494;8.410;2023-04-01T00:53:52;2.17;;;1.17;;
28009;SDS011;15334;49.494;8.410;2023-04-01T00:56:22;4.78;;;0.77;;
28009;SDS011;15334;49.494;8.410;2023-04-01T00:58:54;4.72;;;0.80;;
28009;SDS011;15334;49.494;8.410;2023-04-01T01:01:25;3.47;;;0.95;;
28009;SDS011;15334;49.494;8.410;2023-04-01T01:03:55;3.85;;;0.80;;
28009;SDS011;15334;49.494;8.410;2023-04-01T01:06:24;3.33;;;0.80;;
28009;SDS011;15334;49.494;8.410;2023-04-01T01:09:12;2.95;;;1.08;;
28009;SDS011;15334;49.494;8.410;2023-04-01T01:50:55;3.28;;;1.00;;
28009;SDS011;15334;49.494;8.410;2023-04-01T01:53:19;6.90;;;0.80;;
28009;SDS011;15334;49.494;8.410;2023-04-01T01:57:05;2.15;;;0.68;;
28009;SDS011;15334;49.494;8.410;2023-04-01T02:01:24;3.70;;;0.88;;
28009;SDS011;15334;49.494;8.410;2023-04-01T02:16:39;5.25;;;1.23;;
28009;SDS011;15334;49.494;8.410;2023-04-01T02:20:30;4.03;;;1.05;;
28009;SDS011;15334;49.494;8.410;2023-04-01T02:24:19;6.40;;;0.80;;
28009;SDS011;15334;49.494;8.410;2023-04-01T02:28:03;6.15;;;2.03;;
28009;SDS011;15334;49.494;8.410;2023-04-01T02:48:42;3.85;;;0.85;;
28009;SDS011;15334;49.494;8.410;2023-04-01T02:52:30;2.75;;;0.75;;
28009;SDS011;15334;49.494;8.410;2023-04-01T03:19:55;3.67;;;0.60;;
28009;SDS011;15334;49.494;8.410;2023-04-01T03:23:48;3.42;;;1.35;;
28009;SDS011;15334;49.494;8.410;2023-04-01T03:27:32;4.18;;;0.70;;
28009;SDS011;15334;49.494;8.410;2023-04-01T03:39:30;2.90;;;0.70;;
28009;SDS011;15334;49.494;8.410;2023-04-01T04:05:02;3.63;;;0.70;;
28009;SDS011;15334;49.494;8.410;2023-04-01T04:08:32;1.83;;;0.63;;
28009;SDS011;15334;49.494;8.410;2023-04-01T04:20:05;2.75;;;1.30;;
28009;SDS011;15334;49.494;8.410;2023-04-01T04:24:06;1.13;;;0.57;;
28009;SDS011;15334;49.494;8.410;2023-04-01T04:27:36;4.60;;;0.90;;
28009;SDS011;15334;49.494;8.410;2023-04-01T04:54:47;5.68;;;0.60;;
28009;SDS011;15334;49.494;8.410;2023-04-01T04:58:49;2.90;;;0.57;;
28009;SDS011;15334;49.494;8.410;2023-04-01T05:02:13;3.05;;;0.68;;
28009;SDS011;15334;49.494;8.410;2023-04-01T05:51:44;3.72;;;1.00;;
28009;SDS011;15334;49.494;8.410;2023-04-01T05:54:18;1.63;;;0.77;;
28009;SDS011;15334;49.494;8.410;2023-04-01T05:56:46;6.30;;;0.85;;
28009;SDS011;15334;49.494;8.410;2023-04-01T05:59:14;2.60;;;0.75;;
28009;SDS011;15334;49.494;8.410;2023-04-01T06:01:42;2.65;;;0.80;;
28009;SDS011;15334;49.494;8.410;2023-04-01T06:04:12;3.63;;;1.00;;
28009;SDS011;15334;49.494;8.410;2023-04-01T06:06:53;2.47;;;0.85;;
28009;SDS011;15334;49.494;8.410;2023-04-01T06:09:50;2.95;;;0.77;;
28009;SDS011;15334;49.494;8.410;2023-04-01T06:15:25;2.83;;;0.80;;
28009;SDS011;15334;49.494;8.410;2023-04-01T06:18:13;3.47;;;0.77;;
28009;SDS011;15334;49.494;8.410;2023-04-01T06:21:08;2.47;;;0.70;;
28009;SDS011;15334;49.494;8.410;2023-04-01T06:24:03;1.70;;;0.60;;
28009;SDS011;15334;49.494;8.410;2023-04-01T06:26:46;4.03;;;0.55;;
28009;SDS011;15334;49.494;8.410;2023-04-01T06:29:43;3.33;;;0.73;;
28009;SDS011;15334;49.494;8.410;2023-04-01T06:35:30;2.17;;;0.65;;
28009;SDS011;15334;49.494;8.410;2023-04-01T06:38:17;1.45;;;0.65;;
28009;SDS011;15334;49.494;8.410;2023-04-01T06:41:01;2.80;;;0.70;;
28009;SDS011;15334;49.494;8.410;2023-04-01T06:43:55;0.93;;;0.28;;
28009;SDS011;15334;49.494;8.410;2023-04-01T06:46:42;2.38;;;0.47;;
28009;SDS011;15334;49.494;8.410;2023-04-01T06:49:27;0.90;;;0.35;;
28009;SDS011;15334;49.494;8.410;2023-04-01T06:52:40;4.15;;;0.45;;
28009;SDS011;15334;49.494;8.410;2023-04-01T06:55:32;2.55;;;0.60;;
28009;SDS011;15334;49.494;8.410;2023-04-01T06:58:16;0.57;;;0.40;;
28009;SDS011;15334;49.494;8.410;2023-04-01T07:01:39;1.65;;;0.50;;
28009;SDS011;15334;49.494;8.410;2023-04-01T07:08:20;1.90;;;0.38;;
28009;SDS011;15334;49.494;8.410;2023-04-01T07:11:33;2.63;;;0.40;;
28009;SDS011;15334;49.494;8.410;2023-04-01T07:14:06;1.80;;;0.50;;
28009;SDS011;15334;49.494;8.410;2023-04-01T07:16:42;1.25;;;0.40;;
28009;SDS011;15334;49.494;8.410;2023-04-01T07:19:16;1.30;;;0.35;;
28009;SDS011;15334;49.494;8.410;2023-04-01T07:21:51;4.13;;;0.80;;
28009;SDS011;15334;49.494;8.410;2023-04-01T07:24:25;0.85;;;0.50;;
28009;SDS011;15334;49.494;8.410;2023-04-01T07:29:26;2.45;;;0.40;;
28009;SDS011;15334;49.494;8.410;2023-04-01T07:31:58;4.03;;;0.60;;
28009;SDS011;15334;49.494;8.410;2023-04-01T07:34:40;1.40;;;0.55;;
28009;SDS011;15334;49.494;8.410;2023-04-01T07:37:15;3.13;;;0.50;;
28009;SDS011;15334;49.494;8.410;2023-04-01T07:39:51;0.32;;;0.32;;
28009;SDS011;15334;49.494;8.410;2023-04-01T07:42:29;0.98;;;0.35;;
28009;SDS011;15334;49.494;8.410;2023-04-01T07:45:08;2.50;;;0.60;;
28009;SDS011;15334;49.494;8.410;2023-04-01T07:47:50;0.98;;;0.40;;
28009;SDS011;15334;49.494;8.410;2023-04-01T07:50:28;1.67;;;0.47;;
28009;SDS011;15334;49.494;8.410;2023-04-01T07:53:01;2.15;;;0.50;;
28009;SDS011;15334;49.494;8.410;2023-04-01T08:02:20;1.88;;;0.82;;
28009;SDS011;15334;49.494;8.410;2023-04-01T08:05:06;1.75;;;0.35;;
28009;SDS011;15334;49.494;8.410;2023-04-01T08:07:53;1.67;;;0.38;;
28009;SDS011;15334;49.494;8.410;2023-04-01T08:10:54;1.33;;;0.50;;
28009;SDS011;15334;49.494;8.410;2023-04-01T08:13:33;0.70;;;0.25;;
28009;SDS011;15334;49.494;8.410;2023-04-01T08:16:22;3.28;;;0.40;;
28009;SDS011;15334;49.494;8.410;2023-04-01T08:22:47;1.13;;;0.63;;
28009;SDS011;15334;49.494;8.410;2023-04-01T08:25:30;1.17;;;0.70;;
28009;SDS011;15334;49.494;8.410;2023-04-01T08:28:16;1.83;;;0.70;;
28009;SDS011;15334;49.494;8.410;2023-04-01T08:31:12;0.57;;;0.40;;
28009;SDS011;15334;49.494;8.410;2023-04-01T08:33:47;1.85;;;0.55;;
28009;SDS011;15334;49.494;8.410;2023-04-01T08:36:24;1.17;;;0.50;;
28009;SDS011;15334;49.494;8.410;2023-04-01T08:39:05;1.58;;;0.40;;
28009;SDS011;15334;49.494;8.410;2023-04-01T08:45:07;0.55;;;0.17;;
28009;SDS011;15334;49.494;8.410;2023-04-01T08:47:54;0.75;;;0.43;;
28009;SDS011;15334;49.494;8.410;2023-04-01T08:57:32;0.98;;;0.50;;
28009;SDS011;15334;49.494;8.410;2023-04-01T09:00:15;1.85;;;0.55;;
28009;SDS011;15334;49.494;8.410;2023-04-01T09:06:29;1.45;;;0.50;;
28009;SDS011;15334;49.494;8.410;2023-04-01T09:09:15;1.15;;;0.47;;
28009;SDS011;15334;49.494;8.410;2023-04-01T09:12:07;0.25;;;0.25;;
28009;SDS011;15334;49.494;8.410;2023-04-01T09:14:57;1.50;;;0.38;;
28009;SDS011;15334;49.494;8.410;2023-04-01T09:17:47;0.35;;;0.20;;
28009;SDS011;15334;49.494;8.410;2023-04-01T09:23:55;0.47;;;0.30;;
28009;SDS011;15334;49.494;8.410;2023-04-01T09:27:00;0.40;;;0.40;;
28009;SDS011;15334;49.494;8.410;2023-04-01T09:29:45;0.38;;;0.35;;
28009;SDS011;15334;49.494;8.410;2023-04-01T09:35:42;0.40;;;0.20;;
28009;SDS011;15334;49.494;8.410;2023-04-01T09:38:22;0.45;;;0.32;;
28009;SDS011;15334;49.494;8.410;2023-04-01T09:41:05;1.52;;;0.40;;
28009;SDS011;15334;49.494;8.410;2023-04-01T09:44:05;0.50;;;0.50;;
28009;SDS011;15334;49.494;8.410;2023-04-01T09:47:13;2.17;;;0.52;;
28009;SDS011;15334;49.494;8.410;2023-04-01T09:53:03;0.50;;;0.30;;
28009;SDS011;15334;49.494;8.410;2023-04-01T10:06:18;0.57;;;0.30;;
28009;SDS011;15334;49.494;8.410;2023-04-01T10:16:26;0.45;;;0.20;;
28009;SDS011;15334;49.494;8.410;2023-04-01T10:19:37;0.30;;;0.30;;
28009;SDS011;15334;49.494;8.410;2023-04-01T10:25:44;1.48;;;0.30;;
28009;SDS011;15334;49.494;8.410;2023-04-01T10:35:24;0.80;;;0.50;;
28009;SDS011;15334;49.494;8.410;2023-04-01T10:38:35;1.07;;;0.40;;
28009;SDS011;15334;49.494;8.410;2023-04-01T10:50:49;0.65;;;0.20;;
28009;SDS011;15334;49.494;8.410;2023-04-01T10:56:55;1.02;;;0.22;;
28009;SDS011;15334;49.494;8.410;2023-04-01T11:08:54;0.20;;;0.20;;
28009;SDS011;15334;49.494;8.410;2023-04-01T11:12:06;0.30;;;0.30;;
28009;SDS011;15334;49.494;8.410;2023-04-01T11:18:17;1.58;;;0.57;;
28009;SDS011;15334;49.494;8.410;2023-04-01T11:24:19;0.57;;;0.20;;
28009;SDS011;15334;49.494;8.410;2023-04-01T11:27:03;0.20;;;0.20;;
28009;SDS011;15334;49.494;8.410;2023-04-01T11:29:47;0.15;;;0.15;;
28009;SDS011;15334;49.494;8.410;2023-04-01T11:35:28;0.35;;;0.20;;
28009;SDS011;15334;49.494;8.410;2023-04-01T11:38:29;0.68;;;0.25;;
28009;SDS011;15334;49.494;8.410;2023-04-01T11:41:16;0.13;;;0.13;;
28009;SDS011;15334;49.494;8.410;2023-04-01T11:44:01;0.17;;;0.17;;
28009;SDS011;15334;49.494;8.410;2023-04-01T11:46:41;0.30;;;0.25;;
28009;SDS011;15334;49.494;8.410;2023-04-01T11:49:24;0.40;;;0.30;;
28009;SDS011;15334;49.494;8.410;2023-04-01T11:52:09;0.20;;;0.20;;
28009;SDS011;15334;49.494;8.410;2023-04-01T11:54:53;0.45;;;0.30;;
28009;SDS011;15334;49.494;8.410;2023-04-01T11:57:50;1.10;;;0.30;;
28009;SDS011;15334;49.494;8.410;2023-04-01T12:06:52;0.65;;;0.55;;
28009;SDS011;15334;49.494;8.410;2023-04-01T12:09:32;1.23;;;0.30;;
28009;SDS011;15334;49.494;8.410;2023-04-01T12:12:13;0.75;;;0.40;;
28009;SDS011;15334;49.494;8.410;2023-04-01T12:14:57;0.38;;;0.35;;
28009;SDS011;15334;49.494;8.410;2023-04-01T12:17:39;0.22;;;0.22;;
28009;SDS011;15334;49.494;8.410;2023-04-01T12:20:37;1.23;;;0.80;;
28009;SDS011;15334;49.494;8.410;2023-04-01T12:23:19;1.40;;;0.40;;
28009;SDS011;15334;49.494;8.410;2023-04-01T12:26:19;2.30;;;0.63;;
28009;SDS011;15334;49.494;8.410;2023-04-01T12:28:59;0.40;;;0.38;;
28009;SDS011;15334;49.494;8.410;2023-04-01T12:31:41;1.17;;;0.40;;
28009;SDS011;15334;49.494;8.410;2023-04-01T12:34:28;1.77;;;0.40;;
28009;SDS011;15334;49.494;8.410;2023-04-01T12:37:24;0.38;;;0.38;;
28009;SDS011;15334;49.494;8.410;2023-04-01T12:43:34;1.85;;;0.30;;
28009;SDS011;15334;49.494;8.410;2023-04-01T12:46:24;0.45;;;0.25;;
28009;SDS011;15334;49.494;8.410;2023-04-01T12:52:23;0.80;;;0.32;;
28009;SDS011;15334;49.494;8.410;2023-04-01T12:58:07;1.17;;;0.30;;
28009;SDS011;15334;49.494;8.410;2023-04-01T13:07:22;2.67;;;0.43;;
28009;SDS011;15334;49.494;8.410;2023-04-01T13:10:13;0.20;;;0.20;;
28009;SDS011;15334;49.494;8.410;2023-04-01T13:16:24;0.28;;;0.25;;
28009;SDS011;15334;49.494;8.410;2023-04-01T13:19:03;0.28;;;0.28;;
28009;SDS011;15334;49.494;8.410;2023-04-01T13:21:43;0.88;;;0.30;;
28009;SDS011;15334;49.494;8.410;2023-04-01T13:24:24;0.20;;;0.20;;
28009;SDS011;15334;49.494;8.410;2023-04-01T13:27:09;0.30;;;0.25;;
28009;SDS011;15334;49.494;8.410;2023-04-01T13:30:07;0.22;;;0.20;;
28009;SDS011;15334;49.494;8.410;2023-04-01T13:33:25;0.75;;;0.32;;
28009;SDS011;15334;49.494;8.410;2023-04-01T13:40:00;0.68;;;0.50;;
28009;SDS011;15334;49.494;8.410;2023-04-01T13:43:02;3.13;;;0.30;;
28009;SDS011;15334;49.494;8.410;2023-04-01T13:45:38;0.40;;;0.35;;
28009;SDS011;15334;49.494;8.410;2023-04-01T13:48:25;0.28;;;0.28;;
28009;SDS011;15334;49.494;8.410;2023-04-01T13:51:13;0.32;;;0.22;;
28009;SDS011;15334;49.494;8.410;2023-04-01T13:57:20;0.75;;;0.17;;
28009;SDS011;15334;49.494;8.410;2023-04-01T14:00:15;1.67;;;0.60;;
28009;SDS011;15334;49.494;8.410;2023-04-01T14:02:56;1.33;;;0.40;;
28009;SDS011;15334;49.494;8.410;2023-04-01T14:05:48;0.40;;;0.30;;
28009;SDS011;15334;49.494;8.410;2023-04-01T14:08:29;0.32;;;0.32;;
28009;SDS011;15334;49.494;8.410;2023-04-01T14:15:32;0.90;;;0.40;;
28009;SDS011;15334;49.494;8.410;2023-04-01T14:18:56;0.30;;;0.30;;
28009;SDS011;15334;49.494;8.410;2023-04-01T14:21:35;0.43;;;0.30;;
28009;SDS011;15334;49.494;8.410;2023-04-01T14:24:17;0.75;;;0.25;;
28009;SDS011;15334;49.494;8.410;2023-04-01T14:30:14;0.28;;;0.28;;
28009;SDS011;15334;49.494;8.410;2023-04-01T14:32:57;0.55;;;0.28;;
28009;SDS011;15334;49.494;8.410;2023-04-01T14:35:37;0.40;;;0.22;;
28009;SDS011;15334;49.494;8.410;2023-04-01T14:38:20;0.47;;;0.30;;
28009;SDS011;15334;49.494;8.410;2023-04-01T14:41:00;0.40;;;0.35;;
28009;SDS011;15334;49.494;8.410;2023-04-01T14:43:55;0.40;;;0.30;;
28009;SDS011;15334;49.494;8.410;2023-04-01T14:49:48;1.25;;;0.40;;
28009;SDS011;15334;49.494;8.410;2023-04-01T14:52:24;0.77;;;0.40;;
28009;SDS011;15334;49.494;8.410;2023-04-01T14:54:56;1.88;;;1.05;;
28009;SDS011;15334;49.494;8.410;2023-04-01T14:57:27;2.03;;;0.60;;
28009;SDS011;15334;49.494;8.410;2023-04-01T14:59:59;1.02;;;0.50;;
28009;SDS011;15334;49.494;8.410;2023-04-01T15:02:35;0.17;;;0.17;;
28009;SDS011;15334;49.494;8.410;2023-04-01T15:05:16;3.95;;;0.50;;
28009;SDS011;15334;49.494;8.410;2023-04-01T15:10:48;1.23;;;0.40;;
28009;SDS011;15334;49.494;8.410;2023-04-01T15:13:37;0.32;;;0.32;;
28009;SDS011;15334;49.494;8.410;2023-04-01T15:16:18;0.22;;;0.22;;
28009;SDS011;15334;49.494;8.410;2023-04-01T15:18:54;0.50;;;0.50;;
28009;SDS011;15334;49.494;8.410;2023-04-01T15:21:36;1.90;;;0.60;;
28009;SDS011;15334;49.494;8.410;2023-04-01T15:24:52;0.75;;;0.50;;
28009;SDS011;15334;49.494;8.410;2023-04-01T15:27:34;3.00;;;0.45;;
28009;SDS011;15334;49.494;8.410;2023-04-01T15:30:21;3.45;;;0.40;;
28009;SDS011;15334;49.494;8.410;2023-04-01T15:38:30;2.58;;;0.90;;
28009;SDS011;15334;49.494;8.410;2023-04-01T15:41:11;0.95;;;0.57;;
28009;SDS011;15334;49.494;8.410;2023-04-01T15:43:43;0.90;;;0.40;;
28009;SDS011;15334;49.494;8.410;2023-04-01T15:46:19;0.68;;;0.60;;
28009;SDS011;15334;49.494;8.410;2023-04-01T15:48:59;0.45;;;0.40;;
28009;SDS011;15334;49.494;8.410;2023-04-01T15:51:38;0.38;;;0.38;;
28009;SDS011;15334;49.494;8.410;2023-04-01T15:54:23;0.75;;;0.43;;
28009;SDS011;15334;49.494;8.410;2023-04-01T15:57:11;0.50;;;0.38;;
28009;SDS011;15334;49.494;8.410;2023-04-01T15:59:54;2.22;;;0.35;;
28009;SDS011;15334;49.494;8.410;2023-04-01T16:02:40;2.17;;;0.45;;
28009;SDS011;15334;49.494;8.410;2023-04-01T16:05:26;0.98;;;0.30;;
28009;SDS011;15334;49.494;8.410;2023-04-01T16:11:16;0.90;;;0.30;;
28009;SDS011;15334;49.494;8.410;2023-04-01T16:13:55;2.10;;;0.68;;
28009;SDS011;15334;49.494;8.410;2023-04-01T16:16:36;0.75;;;0.50;;
28009;SDS011;15334;49.494;8.410;2023-04-01T16:19:31;0.40;;;0.40;;
28009;SDS011;15334;49.494;8.410;2023-04-01T16:22:07;1.13;;;0.70;;
28009;SDS011;15334;49.494;8.410;2023-04-01T16:24:38;0.57;;;0.57;;
28009;SDS011;15334;49.494;8.410;2023-04-01T16:27:23;0.75;;;0.50;;
28009;SDS011;15334;49.494;8.410;2023-04-01T16:29:56;1.73;;;0.50;;
28009;SDS011;15334;49.494;8.410;2023-04-01T16:32:35;4.20;;;0.70;;
28009;SDS011;15334;49.494;8.410;2023-04-01T16:38:07;0.50;;;0.50;;
28009;SDS011;15334;49.494;8.410;2023-04-01T16:40:42;2.15;;;0.70;;
28009;SDS011;15334;49.494;8.410;2023-04-01T16:43:19;0.90;;;0.68;;
28009;SDS011;15334;49.494;8.410;2023-04-01T16:46:12;2.08;;;0.60;;
28009;SDS011;15334;49.494;8.410;2023-04-01T16:49:00;2.70;;;0.50;;
28009;SDS011;15334;49.494;8.410;2023-04-01T16:51:35;0.93;;;0.60;;
28009;SDS011;15334;49.494;8.410;2023-04-01T16:54:11;1.63;;;0.73;;
28009;SDS011;15334;49.494;8.410;2023-04-01T16:56:45;3.65;;;0.80;;
28009;SDS011;15334;49.494;8.410;2023-04-01T16:59:21;1.20;;;0.60;;
28009;SDS011;15334;49.494;8.410;2023-04-01T17:02:02;2.65;;;0.60;;
28009;SDS011;15334;49.494;8.410;2023-04-01T17:04:57;1.85;;;0.73;;
28009;SDS011;15334;49.494;8.410;2023-04-01T17:07:43;1.73;;;0.70;;
28009;SDS011;15334;49.494;8.410;2023-04-01T17:10:22;3.83;;;0.60;;
28009;SDS011;15334;49.494;8.410;2023-04-01T17:13:14;1.08;;;0.50;;
28009;SDS011;15334;49.494;8.410;2023-04-01T17:16:01;1.87;;;0.70;;
28009;SDS011;15334;49.494;8.410;2023-04-01T17:18:57;0.60;;;0.57;;
28009;SDS011;15334;49.494;8.410;2023-04-01T17:21:35;2.33;;;0.40;;
28009;SDS011;15334;49.494;8.410;2023-04-01T17:26:50;1.63;;;0.55;;
28009;SDS011;15334;49.494;8.410;2023-04-01T17:29:29;0.70;;;0.40;;
28009;SDS011;15334;49.494;8.410;2023-04-01T17:32:07;1.55;;;0.63;;
28009;SDS011;15334;49.494;8.410;2023-04-01T17:34:42;1.25;;;0.43;;
28009;SDS011;15334;49.494;8.410;2023-04-01T17:37:28;1.38;;;0.68;;
28009;SDS011;15334;49.494;8.410;2023-04-01T17:40:11;1.33;;;0.47;;
28009;SDS011;15334;49.494;8.410;2023-04-01T17:42:50;1.00;;;0.60;;
28009;SDS011;15334;49.494;8.410;2023-04-01T17:45:28;2.53;;;0.50;;
28009;SDS011;15334;49.494;8.410;2023-04-01T17:48:03;1.17;;;0.60;;
28009;SDS011;15334;49.494;8.410;2023-04-01T17:50:45;0.35;;;0.30;;
28009;SDS011;15334;49.494;8.410;2023-04-01T17:53:28;0.50;;;0.30;;
28009;SDS011;15334;49.494;8.410;2023-04-01T17:56:08;1.27;;;0.40;;
28009;SDS011;15334;49.494;8.410;2023-04-01T17:58:45;1.30;;;0.60;;
28009;SDS011;15334;49.494;8.410;2023-04-01T18:08:35;0.98;;;0.50;;
28009;SDS011;15334;49.494;8.410;2023-04-01T18:11:53;1.08;;;0.47;;
28009;SDS011;15334;49.494;8.410;2023-04-01T18:15:33;1.65;;;0.60;;
28009;SDS011;15334;49.494;8.410;2023-04-01T18:25:35;1.73;;;0.88;;
28009;SDS011;15334;49.494;8.410;2023-04-01T18:31:31;1.23;;;0.50;;
28009;SDS011;15334;49.494;8.410;2023-04-01T18:33:15;3.28;;;0.85;;
28009;SDS011;15334;49.494;8.410;2023-04-01T18:36:33;4.00;;;0.68;;
28009;SDS011;15334;49.494;8.410;2023-04-01T18:46:33;0.60;;;0.60;;
28009;SDS011;15334;49.494;8.410;2023-04-01T18:49:33;3.60;;;0.98;;
28009;SDS011;15334;49.494;8.410;2023-04-01T18:52:44;3.25;;;0.98;;
28009;SDS011;15334;49.494;8.410;2023-04-01T18:55:41;1.75;;;0.80;;
28009;SDS011;15334;49.494;8.410;2023-04-01T18:58:24;2.47;;;0.98;;
28009;SDS011;15334;49.494;8.410;2023-04-01T19:01:12;5.50;;;0.75;;
28009;SDS011;15334;49.494;8.410;2023-04-01T19:07:39;1.33;;;0.75;;
28009;SDS011;15334;49.494;8.410;2023-04-01T19:14:27;2.40;;;1.13;;
28009;SDS011;15334;49.494;8.410;2023-04-01T19:18:08;5.03;;;1.20;;
28009;SDS011;15334;49.494;8.410;2023-04-01T19:21:43;1.75;;;0.80;;
28009;SDS011;15334;49.494;8.410;2023-04-01T19:24:41;2.28;;;1.30;;
28009;SDS011;15334;49.494;8.410;2023-04-01T19:28:04;2.53;;;0.80;;
28009;SDS011;15334;49.494;8.410;2023-04-01T19:34:26;0.50;;;0.50;;
28009;SDS011;15334;49.494;8.410;2023-04-01T19:37:28;0.68;;;0.60;;
28009;SDS011;15334;49.494;8.410;2023-04-01T19:43:58;1.10;;;0.52;;
28009;SDS011;15334;49.494;8.410;2023-04-01T19:47:17;0.50;;;0.50;;
28009;SDS011;15334;49.494;8.410;2023-04-01T19:50:37;0.88;;;0.50;;
28009;SDS011;15334;49.494;8.410;2023-04-01T19:53:48;1.02;;;0.70;;
28009;SDS011;15334;49.494;8.410;2023-04-01T20:00:14;0.98;;;0.68;;
28009;SDS011;15334;49.494;8.410;2023-04-01T20:03:16;1.95;;;0.82;;
28009;SDS011;15334;49.494;8.410;2023-04-01T20:06:50;2.72;;;0.70;;
28009;SDS011;15334;49.494;8.410;2023-04-01T20:10:07;1.02;;;0.68;;
28009;SDS011;15334;49.494;8.410;2023-04-01T20:12:43;1.45;;;0.70;;
28009;SDS011;15334;49.494;8.410;2023-04-01T20:15:43;1.63;;;0.73;;
28009;SDS011;15334;49.494;8.410;2023-04-01T20:19:40;3.90;;;1.15;;
28009;SDS011;15334;49.494;8.410;2023-04-01T20:22:54;1.52;;;0.88;;
28009;SDS011;15334;49.494;8.410;2023-04-01T20:26:19;1.50;;;0.90;;
28009;SDS011;15334;49.494;8.410;2023-04-01T20:45:31;2.10;;;1.00;;
28009;SDS011;15334;49.494;8.410;2023-04-01T20:48:14;3.42;;;0.77;;
28009;SDS011;15334;49.494;8.410;2023-04-01T20:51:32;3.00;;;1.08;;
28009;SDS011;15334;49.494;8.410;2023-04-01T20:54:15;0.70;;;0.70;;
28009;SDS011;15334;49.494;8.410;2023-04-01T20:57:20;1.20;;;0.85;;
28009;SDS011;15334;49.494;8.410;2023-04-01T21:03:23;0.98;;;0.73;;
28009;SDS011;15334;49.494;8.410;2023-04-01T21:06:18;3.13;;;1.20;;
28009;SDS011;15334;49.494;8.410;2023-04-01T21:09:51;1.40;;;0.95;;
28009;SDS011;15334;49.494;8.410;2023-04-01T21:13:55;3.33;;;1.02;;
28009;SDS011;15334;49.494;8.410;2023-04-01T21:16:49;1.95;;;1.20;;
28009;SDS011;15334;49.494;8.410;2023-04-01T21:25:55;4.07;;;1.48;;
28009;SDS011;15334;49.494;8.410;2023-04-01T21:38:51;2.20;;;1.55;;
28009;SDS011;15334;49.494;8.410;2023-04-01T21:42:04;2.63;;;1.65;;
28009;SDS011;15334;49.494;8.410;2023-04-01T21:45:18;2.30;;;1.60;;
28009;SDS011;15334;49.494;8.410;2023-04-01T21:51:46;3.55;;;1.50;;
28009;SDS011;15334;49.494;8.410;2023-04-01T21:55:11;3.80;;;1.40;;
28009;SDS011;15334;49.494;8.410;2023-04-01T21:58:38;3.42;;;1.25;;
28009;SDS011;15334;49.494;8.410;2023-04-01T22:01:42;3.65;;;1.52;;
28009;SDS011;15334;49.494;8.410;2023-04-01T22:07:17;2.15;;;1.08;;
28009;SDS011;15334;49.494;8.410;2023-04-01T22:09:51;1.50;;;1.00;;
28009;SDS011;15334;49.494;8.410;2023-04-01T22:12:26;1.85;;;1.10;;
28009;SDS011;15334;49.494;8.410;2023-04-01T22:15:06;1.75;;;1.05;;
28009;SDS011;15334;49.494;8.410;2023-04-01T22:17:45;2.45;;;1.35;;
28009;SDS011;15334;49.494;8.410;2023-04-01T22:20:21;2.67;;;1.20;;
28009;SDS011;15334;49.494;8.410;2023-04-01T22:23:06;1.65;;;1.13;;
28009;SDS011;15334;49.494;8.410;2023-04-01T22:25:42;1.95;;;1.10;;
28009;SDS011;15334;49.494;8.410;2023-04-01T22:28:16;2.55;;;1.10;;
28009;SDS011;15334;49.494;8.410;2023-04-01T22:30:48;1.88;;;1.00;;
28009;SDS011;15334;49.494;8.410;2023-04-01T22:33:20;5.40;;;1.13;;
28009;SDS011;15334;49.494;8.410;2023-04-01T22:35:54;1.88;;;1.13;;
28009;SDS011;15334;49.494;8.410;2023-04-01T22:38:35;1.45;;;1.00;;
28009;SDS011;15334;49.494;8.410;2023-04-01T22:41:24;4.07;;;1.50;;
28009;SDS011;15334;49.494;8.410;2023-04-01T22:43:57;2.72;;;0.90;;
28009;SDS011;15334;49.494;8.410;2023-04-01T22:46:30;1.45;;;0.82;;
28009;SDS011;15334;49.494;8.410;2023-04-01T22:49:17;2.35;;;0.80;;
28009;SDS011;15334;49.494;8.410;2023-04-01T22:51:50;1.65;;;1.10;;
28009;SDS011;15334;49.494;8.410;2023-04-01T22:54:24;3.42;;;1.40;;
28009;SDS011;15334;49.494;8.410;2023-04-01T22:56:57;4.40;;;1.25;;
28009;SDS011;15334;49.494;8.410;2023-04-01T22:59:31;4.10;;;1.27;;
28009;SDS011;15334;49.494;8.410;2023-04-01T23:02:06;2.15;;;1.20;;
28009;SDS011;15334;49.494;8.410;2023-04-01T23:04:42;1.92;;;1.23;;
28009;SDS011;15334;49.494;8.410;2023-04-01T23:07:19;4.50;;;1.50;;
28009;SDS011;15334;49.494;8.410;2023-04-01T23:10:05;2.83;;;1.33;;
28009;SDS011;15334;49.494;8.410;2023-04-01T23:12:40;3.15;;;1.50;;
28009;SDS011;15334;49.494;8.410;2023-04-01T23:15:11;2.38;;;1.08;;
28009;SDS011;15334;49.494;8.410;2023-04-01T23:17:42;2.67;;;1.20;;
28009;SDS011;15334;49.494;8.410;2023-04-01T23:23:20;3.03;;;1.30;;
28009;SDS011;15334;49.494;8.410;2023-04-01T23:25:56;3.20;;;1.20;;
28009;SDS011;15334;49.494;8.410;2023-04-01T23:28:35;2.15;;;1.30;;
28009;SDS011;15334;49.494;8.410;2023-04-01T23:34:04;2.90;;;1.50;;
28009;SDS011;15334;49.494;8.410;2023-04-01T23:36:58;1.70;;;1.27;;
28009;SDS011;15334;49.494;8.410;2023-04-01T23:42:02;3.53;;;1.45;;
28009;SDS011;15334;49.494;8.410;2023-04-01T23:44:33;1.90;;;1.23;;
28009;SDS011;15334;49.494;8.410;2023-04-01T23:47:02;3.38;;;1.45;;
28009;SDS011;15334;49.494;8.410;2023-04-01T23:49:33;2.25;;;1.27;;
28009;SDS011;15334;49.494;8.410;2023-04-01T23:52:08;2.25;;;1.30;;
28009;SDS011;15334;49.494;8.410;2023-04-01T23:54:42;5.28;;;1.38;;
28009;SDS011;15334;49.494;8.410;2023-04-01T23:57:17;2.85;;;1.42;;
